Time;durP1;ratioP1;P1;durP2;ratioP2;P2;SDS_P1;SDS_P2;PMS_P1;PMS_P2;Temp;Humidity;BMP_temperature;BMP_pressure;BME280_temperature;BME280_humidity;BME280_pressure;Samples;Min_cycle;Max_cycle;Signal;HPM_P1;HPM_P2
2022/03/19 00:01:06;;;;;;;23.85;8.23;;;;;;;-149.78;100.00;50311.06;5072437;28;20476;-79
2022/03/19 00:03:32;;;;;;;30.05;8.15;;;;;;;-149.78;100.00;50273.91;5039644;28;20037;-80
2022/03/19 00:05:58;;;;;;;32.00;8.77;;;;;;;-149.78;100.00;50311.06;5072720;28;20040;-80
2022/03/19 00:08:25;;;;;;;29.98;8.15;;;;;;;-149.78;100.00;50279.78;5072140;28;20035;-80
2022/03/19 00:10:51;;;;;;;31.95;9.45;;;;;;;-149.78;100.00;50311.06;5072721;28;20111;-79
2022/03/19 00:13:19;;;;;;;29.20;9.07;;;;;;;-149.78;100.00;50338.44;5072705;28;20051;-80
2022/03/19 00:15:45;;;;;;;30.95;8.50;;;;;;;-149.78;100.00;50334.53;5055451;28;20491;-80
2022/03/19 00:18:11;;;;;;;32.05;9.13;;;;;;;-149.78;100.00;50301.28;5072064;28;20032;-79
2022/03/19 00:20:37;;;;;;;31.85;9.13;;;;;;;-149.78;100.00;50291.50;5055410;28;20033;-79
2022/03/19 00:23:07;;;;;;;31.73;9.75;;;;;;;-149.78;100.00;50305.22;5070999;28;20041;-72
2022/03/19 00:25:33;;;;;;;30.25;9.15;;;;;;;-149.78;100.00;50330.63;5071142;28;20099;-72
2022/03/19 00:27:59;;;;;;;28.30;9.75;;;;;;;-149.78;100.00;50307.16;5072376;28;20067;-71
2022/03/19 00:30:25;;;;;;;31.00;9.43;;;;;;;-149.78;100.00;50342.38;5054538;28;20036;-71
2022/03/19 00:32:51;;;;;;;28.90;9.77;;;;;;;-149.78;100.00;50359.97;5072110;28;20032;-79
2022/03/19 00:35:17;;;;;;;33.42;9.77;;;;;;;-149.78;100.00;50299.34;5055492;28;20032;-80
2022/03/19 00:37:48;;;;;;;32.35;9.13;;;;;;;-149.78;100.00;50346.28;5078782;28;20506;-80
2022/03/19 00:40:16;;;;;;;28.58;8.85;;;;;;;-149.78;100.00;50305.22;5058931;28;20028;-80
2022/03/19 00:42:42;;;;;;;28.83;8.27;;;;;;;-149.78;100.00;50322.81;5093165;28;20372;-78
2022/03/19 00:45:11;;;;;;;26.02;9.38;;;;;;;-149.78;100.00;50324.75;5087606;28;20083;-80
2022/03/19 00:47:37;;;;;;;32.30;9.57;;;;;;;-149.78;100.00;50322.81;5071980;28;20052;-78
2022/03/19 00:50:04;;;;;;;34.05;10.60;;;;;;;-149.78;100.00;50291.50;5038748;28;20443;-80
2022/03/19 00:52:30;;;;;;;29.38;10.43;;;;;;;-149.78;100.00;50326.72;5072004;28;20060;-79
2022/03/19 00:54:55;;;;;;;31.20;10.02;;;;;;;-149.78;100.00;50287.59;5072099;28;20062;-79
2022/03/19 00:57:21;;;;;;;28.92;10.23;;;;;;;-149.78;100.00;50314.97;5055521;28;20074;-79
2022/03/19 00:59:47;;;;;;;29.85;9.35;;;;;;;-149.78;100.00;50342.38;5073221;28;20047;-80
2022/03/19 01:02:12;;;;;;;22.33;9.38;;;;;;;-149.78;100.00;50295.44;5038984;28;20086;-80
2022/03/19 01:04:38;;;;;;;35.65;10.55;;;;;;;-149.78;100.00;50334.53;5073446;28;20123;-79
2022/03/19 01:07:04;;;;;;;29.23;9.55;;;;;;;-149.78;100.00;50332.59;5072118;28;20491;-79
2022/03/19 01:09:30;;;;;;;37.67;9.98;;;;;;;-149.78;100.00;50334.53;5055624;28;20437;-79
2022/03/19 01:11:55;;;;;;;34.80;11.13;;;;;;;-149.78;100.00;50314.97;5072062;28;20025;-80
2022/03/19 01:14:21;;;;;;;31.92;10.15;;;;;;;-149.78;100.00;50322.81;5055437;28;20046;-79
2022/03/19 01:16:47;;;;;;;29.40;10.35;;;;;;;-149.78;100.00;50311.06;5071976;28;20109;-80
2022/03/19 01:19:14;;;;;;;32.38;9.80;;;;;;;-149.78;100.00;50332.59;5072014;28;20032;-80
2022/03/19 01:21:39;;;;;;;28.65;10.20;;;;;;;-149.78;100.00;50311.06;5083006;28;20450;-81
2022/03/19 01:24:06;;;;;;;29.83;11.00;;;;;;;-149.78;100.00;50301.28;5076002;28;20119;-80
2022/03/19 01:26:32;;;;;;;30.83;10.45;;;;;;;-149.78;100.00;50295.44;5092097;28;20035;-81
2022/03/19 01:28:58;;;;;;;31.55;10.70;;;;;;;-149.78;100.00;50311.06;5091984;28;20046;-79
2022/03/19 01:31:26;;;;;;;33.42;9.43;;;;;;;-149.78;100.00;50320.84;5093127;28;20065;-80
2022/03/19 01:33:55;;;;;;;29.15;9.85;;;;;;;-149.78;100.00;50340.41;5058656;28;20036;-80
2022/03/19 01:36:21;;;;;;;29.88;9.43;;;;;;;-149.78;100.00;50314.97;5091824;28;20036;-80
2022/03/19 01:38:47;;;;;;;31.45;9.45;;;;;;;-149.78;100.00;50303.25;5082198;28;20028;-78
2022/03/19 01:41:13;;;;;;;29.20;9.30;;;;;;;-149.78;100.00;50318.91;5071679;28;20051;-80
2022/03/19 01:43:39;;;;;;;27.02;9.20;;;;;;;-149.78;100.00;50342.38;5071640;28;20035;-80
2022/03/19 01:46:07;;;;;;;27.67;9.32;;;;;;;-149.78;100.00;50350.19;5086470;28;20028;-80
2022/03/19 01:48:33;;;;;;;36.00;8.60;;;;;;;-149.78;100.00;50359.97;5074878;28;20069;-81
2022/03/19 01:50:59;;;;;;;37.67;9.38;;;;;;;-149.78;100.00;50305.22;5092007;28;20474;-81
2022/03/19 01:53:24;;;;;;;29.20;9.20;;;;;;;-149.78;100.00;50350.19;5093106;28;20036;-81
2022/03/19 01:55:53;;;;;;;33.95;9.05;;;;;;;-149.78;100.00;50334.53;5093093;28;20115;-81
2022/03/19 01:58:19;;;;;;;26.05;8.77;;;;;;;-149.78;100.00;50318.91;5092194;28;20032;-80
2022/03/19 02:00:45;;;;;;;25.40;8.88;;;;;;;-149.78;100.00;50314.97;5075065;28;20093;-81
2022/03/19 02:03:12;;;;;;;25.27;9.23;;;;;;;-149.78;100.00;50361.91;5092960;28;20077;-80
2022/03/19 02:05:38;;;;;;;37.15;9.43;;;;;;;-149.78;100.00;50342.38;5092964;28;20039;-80
2022/03/19 02:08:04;;;;;;;22.58;8.85;;;;;;;-149.78;100.00;50365.84;5092228;28;20104;-81
2022/03/19 02:10:30;;;;;;;23.92;8.93;;;;;;;-149.78;100.00;50334.53;5102343;28;20036;-80
2022/03/19 02:12:57;;;;;;;27.52;8.35;;;;;;;-149.78;100.00;50346.28;5104557;28;20115;-80
2022/03/19 02:15:23;;;;;;;28.70;8.75;;;;;;;-149.78;100.00;50373.66;5105548;28;20052;-80
2022/03/19 02:17:49;;;;;;;31.50;9.80;;;;;;;-149.78;100.00;50311.06;5103717;28;20063;-81
2022/03/19 02:20:15;;;;;;;31.08;11.68;;;;;;;-149.78;100.00;50342.38;5082448;28;20047;-80
2022/03/19 02:22:41;;;;;;;30.25;10.98;;;;;;;-149.78;100.00;50322.81;5097716;28;20044;-80
2022/03/19 02:27:52;;;;;;;26.85;11.10;;;;;;;-149.78;100.00;50350.19;5095633;28;20036;-80
2022/03/19 02:30:17;;;;;;;35.70;11.70;;;;;;;-149.78;100.00;50361.91;5096881;28;20424;-80
2022/03/19 02:32:47;;;;;;;33.72;11.30;;;;;;;-149.78;100.00;50381.47;5097264;28;20399;-80
2022/03/19 02:35:13;;;;;;;27.27;10.63;;;;;;;-149.78;100.00;50314.97;5096844;28;20031;-80
2022/03/19 02:37:56;;;;;;;32.72;10.38;;;;;;;-149.78;100.00;50352.16;5078888;28;20483;-80
2022/03/19 02:40:22;;;;;;;30.88;11.65;;;;;;;-149.78;100.00;50365.84;5095655;28;20036;-80
2022/03/19 02:42:51;;;;;;;23.80;10.10;;;;;;;-149.78;100.00;50381.47;5096017;28;20040;-79
2022/03/19 02:45:17;;;;;;;30.95;11.82;;;;;;;-149.78;100.00;50379.53;5085151;28;20031;-80
2022/03/19 02:47:58;;;;;;;34.80;12.27;;;;;;;-149.78;100.00;50361.91;5094860;28;20040;-79
2022/03/19 02:50:37;;;;;;;38.75;12.88;;;;;;;-149.78;100.00;50397.13;5093842;28;20032;-80
2022/03/19 02:53:06;;;;;;;28.75;11.93;;;;;;;-149.78;100.00;50354.09;5095829;28;20029;-80
2022/03/19 02:55:34;;;;;;;35.45;12.88;;;;;;;-149.78;100.00;50365.84;5094868;28;20177;-80
2022/03/19 02:58:00;;;;;;;37.03;13.70;;;;;;;-149.78;100.00;50383.44;5090229;28;20536;-79
2022/03/19 03:00:26;;;;;;;30.70;13.25;;;;;;;-149.78;100.00;50371.69;5081231;28;20028;-80
2022/03/19 03:02:52;;;;;;;30.67;14.77;;;;;;;-149.78;100.00;50363.88;5088815;28;20029;-79
2022/03/19 03:05:17;;;;;;;35.47;14.02;;;;;;;-149.78;100.00;50324.75;5066733;28;20104;-80
2022/03/19 03:07:43;;;;;;;45.80;13.40;;;;;;;-149.78;100.00;50334.53;5094681;28;20035;-79
2022/03/19 03:10:09;;;;;;;40.10;14.27;;;;;;;-149.78;100.00;50359.97;5081942;28;20085;-79
2022/03/19 03:12:35;;;;;;;42.85;14.60;;;;;;;-149.78;100.00;50371.69;5075637;28;20035;-79
2022/03/19 03:15:01;;;;;;;40.03;15.07;;;;;;;-149.78;100.00;50373.66;5074305;28;20089;-79
2022/03/19 03:17:28;;;;;;;43.03;13.45;;;;;;;-149.78;100.00;50381.47;5078044;28;20488;-79
2022/03/19 03:19:54;;;;;;;43.33;14.10;;;;;;;-149.78;100.00;50352.16;5064038;28;20403;-79
2022/03/19 03:22:19;;;;;;;47.17;13.82;;;;;;;-149.78;100.00;50369.75;5057447;28;20041;-80
2022/03/19 03:24:45;;;;;;;34.95;13.95;;;;;;;-149.78;100.00;50385.38;5075350;28;20067;-80
2022/03/19 03:27:11;;;;;;;35.70;12.88;;;;;;;-149.78;100.00;50346.28;5075284;28;20128;-80
2022/03/19 03:29:36;;;;;;;38.85;13.93;;;;;;;-149.78;100.00;50397.13;5057092;28;20036;-80
2022/03/19 03:32:02;;;;;;;43.33;14.68;;;;;;;-149.78;100.00;50346.28;5057094;28;20128;-80
2022/03/19 03:34:28;;;;;;;36.75;13.93;;;;;;;-149.78;100.00;50348.22;5076830;28;20120;-80
2022/03/19 03:36:54;;;;;;;44.00;15.38;;;;;;;-149.78;100.00;50346.28;5093764;28;20560;-80
2022/03/19 03:39:20;;;;;;;37.95;13.77;;;;;;;-149.78;100.00;50389.31;5073793;28;20039;-80
2022/03/19 03:41:47;;;;;;;34.55;13.63;;;;;;;-149.78;100.00;50377.56;5057053;28;20391;-80
2022/03/19 03:44:13;;;;;;;38.08;14.10;;;;;;;-149.78;100.00;50377.56;5074835;28;20039;-80
2022/03/19 03:46:39;;;;;;;40.38;14.00;;;;;;;-149.78;100.00;50346.28;5058379;28;20043;-80
2022/03/19 03:49:05;;;;;;;43.88;15.30;;;;;;;-149.78;100.00;50393.22;5076724;28;20032;-80
2022/03/19 03:51:31;;;;;;;32.22;14.77;;;;;;;-149.78;100.00;50365.84;5060239;28;20081;-80
2022/03/19 03:53:56;;;;;;;43.55;16.27;;;;;;;-149.78;100.00;50365.84;5047678;28;20040;-80
2022/03/19 03:56:22;;;;;;;47.28;16.73;;;;;;;-149.78;100.00;50373.66;5074569;28;20040;-80
2022/03/19 03:58:48;;;;;;;49.47;16.65;;;;;;;-149.78;100.00;50377.56;5074447;28;20123;-80
2022/03/19 04:01:14;;;;;;;46.13;15.60;;;;;;;-149.78;100.00;50399.09;5074748;28;20190;-80
2022/03/19 04:03:39;;;;;;;37.65;15.50;;;;;;;-149.78;100.00;50373.66;5090172;28;20112;-81
2022/03/19 04:06:05;;;;;;;50.97;15.60;;;;;;;-149.78;100.00;50393.22;5028357;28;20048;-80
2022/03/19 04:08:31;;;;;;;45.03;15.18;;;;;;;-149.78;100.00;50358.00;5071137;28;20506;-80
2022/03/19 04:10:58;;;;;;;46.95;15.00;;;;;;;-149.78;100.00;50401.03;5075081;28;20043;-80
2022/03/19 04:13:25;;;;;;;47.30;16.00;;;;;;;-149.78;100.00;50385.38;5093072;28;20040;-80
2022/03/19 04:15:50;;;;;;;44.20;15.48;;;;;;;-149.78;100.00;50363.88;5093171;28;20364;-80
2022/03/19 04:18:16;;;;;;;44.92;14.98;;;;;;;-149.78;100.00;50401.03;5076449;28;20036;-79
2022/03/19 04:20:42;;;;;;;45.38;14.75;;;;;;;-149.78;100.00;50369.75;5087179;28;20028;-78
2022/03/19 04:23:10;;;;;;;42.83;14.90;;;;;;;-149.78;100.00;50373.66;5086016;28;20046;-79
2022/03/19 04:25:36;;;;;;;39.75;15.07;;;;;;;-149.78;100.00;50397.13;5060564;28;20124;-79
2022/03/19 04:28:02;;;;;;;56.38;17.55;;;;;;;-149.78;100.00;50373.66;5056256;28;20392;-79
2022/03/19 04:30:29;;;;;;;48.83;15.73;;;;;;;-149.78;100.00;50373.66;5092427;28;20046;-79
2022/03/19 04:32:55;;;;;;;49.58;16.33;;;;;;;-149.78;100.00;50361.91;5092705;28;20078;-79
2022/03/19 04:38:10;;;;;;;45.92;16.02;;;;;;;-149.78;100.00;50361.91;5077027;28;20434;-79
2022/03/19 04:40:37;;;;;;;49.80;17.02;;;;;;;-149.78;100.00;50404.94;5055808;28;20024;-78
2022/03/19 04:43:04;;;;;;;46.53;16.58;;;;;;;-149.78;100.00;50397.13;5073656;28;20033;-78
2022/03/19 04:45:30;;;;;;;35.97;15.57;;;;;;;-149.78;100.00;50404.94;5072377;28;20040;-79
2022/03/19 04:47:56;;;;;;;47.97;15.73;;;;;;;-149.78;100.00;50385.38;5073536;28;20032;-79
2022/03/19 04:50:22;;;;;;;41.95;14.88;;;;;;;-149.78;100.00;50381.47;5072679;28;20415;-79
2022/03/19 04:52:49;;;;;;;38.67;14.98;;;;;;;-149.78;100.00;50408.84;5074536;28;20020;-79
2022/03/19 04:55:15;;;;;;;45.28;14.90;;;;;;;-149.78;100.00;50412.78;5077321;28;20040;-79
2022/03/19 04:57:41;;;;;;;43.88;15.23;;;;;;;-149.78;100.00;50381.47;5071848;28;20123;-79
2022/03/19 05:00:09;;;;;;;45.28;13.90;;;;;;;-149.78;100.00;50391.25;5054101;28;20036;-79
2022/03/19 05:02:34;;;;;;;39.85;14.25;;;;;;;-149.78;100.00;50389.31;5071937;28;20037;-79
2022/03/19 05:05:01;;;;;;;43.03;13.75;;;;;;;-149.78;100.00;50377.56;5071407;28;20058;-79
2022/03/19 05:07:27;;;;;;;41.10;15.00;;;;;;;-149.78;100.00;50391.25;5037815;28;20127;-79
2022/03/19 05:12:40;;;;;;;44.35;15.27;;;;;;;-149.78;100.00;50375.63;5092706;28;20089;-79
2022/03/19 05:15:10;;;;;;;40.75;14.80;;;;;;;-149.78;100.00;50393.22;5093138;28;20471;-79
2022/03/19 05:17:35;;;;;;;40.63;14.50;;;;;;;-149.78;100.00;50377.56;5092182;28;20089;-79
2022/03/19 05:20:01;;;;;;;48.85;15.27;;;;;;;-149.78;100.00;50385.38;5093255;28;20035;-79
2022/03/19 05:22:29;;;;;;;41.05;13.35;;;;;;;-149.78;100.00;50385.38;5092922;28;20083;-79
2022/03/19 05:24:56;;;;;;;44.78;13.77;;;;;;;-149.78;100.00;50373.66;5092202;28;20069;-79
2022/03/19 05:27:22;;;;;;;35.15;12.93;;;;;;;-149.78;100.00;50395.16;5075179;28;20056;-79
2022/03/19 05:29:48;;;;;;;43.53;13.77;;;;;;;-149.78;100.00;50361.91;5057775;28;20036;-79
2022/03/19 05:32:16;;;;;;;43.10;14.05;;;;;;;-149.78;100.00;50403.00;5055233;28;20115;-79
2022/03/19 05:34:42;;;;;;;42.45;13.60;;;;;;;-149.78;100.00;50369.75;5055307;28;20098;-78
2022/03/19 05:37:12;;;;;;;38.58;13.02;;;;;;;-149.78;100.00;50389.31;5071818;28;20063;-79
2022/03/19 05:39:38;;;;;;;43.38;15.32;;;;;;;-149.78;100.00;50424.50;5072927;28;20033;-79
2022/03/19 05:42:05;;;;;;;40.80;13.15;;;;;;;-149.78;100.00;50381.47;5055094;28;20098;-79
2022/03/19 05:44:31;;;;;;;42.72;13.55;;;;;;;-149.78;100.00;50416.69;5074868;28;20526;-79
2022/03/19 05:46:58;;;;;;;35.65;13.63;;;;;;;-149.78;100.00;50389.31;5075699;28;20039;-79
2022/03/19 05:49:25;;;;;;;42.63;13.80;;;;;;;-149.78;100.00;50393.22;5076703;28;20040;-79
2022/03/19 05:51:51;;;;;;;37.80;13.32;;;;;;;-149.78;100.00;50383.44;5075692;28;20097;-79
2022/03/19 05:54:17;;;;;;;44.08;13.45;;;;;;;-149.78;100.00;50395.16;5091170;28;20028;-79
2022/03/19 05:56:43;;;;;;;44.80;13.48;;;;;;;-149.78;100.00;50358.00;5097017;28;20491;-79
2022/03/19 05:59:09;;;;;;;46.83;14.25;;;;;;;-149.78;100.00;50416.69;5095716;28;20036;-79
2022/03/19 06:01:35;;;;;;;38.03;13.18;;;;;;;-149.78;100.00;50365.84;5095657;28;20043;-79
2022/03/19 06:04:00;;;;;;;41.53;13.38;;;;;;;-149.78;100.00;50418.63;5095990;28;20553;-78
2022/03/19 06:06:27;;;;;;;45.83;15.55;;;;;;;-149.78;100.00;50358.00;5095553;28;20061;-77
2022/03/19 06:08:54;;;;;;;45.95;14.27;;;;;;;-149.78;100.00;50367.78;5091188;28;20024;-78
2022/03/19 06:11:20;;;;;;;52.33;15.00;;;;;;;-149.78;100.00;50367.78;5083758;28;20032;-79
2022/03/19 06:13:45;;;;;;;42.45;14.82;;;;;;;-149.78;100.00;50424.50;5078312;28;20028;-78
2022/03/19 06:16:11;;;;;;;42.05;14.43;;;;;;;-149.78;100.00;50434.28;5095504;28;20032;-78
2022/03/19 06:18:37;;;;;;;47.75;15.70;;;;;;;-149.78;100.00;50389.31;5095529;28;20402;-79
2022/03/19 06:21:03;;;;;;;44.28;15.35;;;;;;;-149.78;100.00;50420.59;5095224;28;20044;-79
2022/03/19 06:23:29;;;;;;;43.38;15.48;;;;;;;-149.78;100.00;50408.84;5078733;28;20039;-78
2022/03/19 06:25:56;;;;;;;50.85;15.73;;;;;;;-149.78;100.00;50391.25;5096582;28;20032;-78
2022/03/19 06:28:21;;;;;;;50.45;15.27;;;;;;;-149.78;100.00;50385.38;5057986;28;20040;-78
2022/03/19 06:30:50;;;;;;;46.45;15.15;;;;;;;-149.78;100.00;50371.69;5058214;28;20044;-78
2022/03/19 06:33:15;;;;;;;41.80;14.50;;;;;;;-149.78;100.00;50399.09;5076103;28;20149;-78
2022/03/19 06:38:29;;;;;;;51.05;14.30;;;;;;;-149.78;100.00;50381.47;5076349;28;20514;-78
2022/03/19 06:40:57;;;;;;;46.92;13.48;;;;;;;-149.78;100.00;50379.53;5076002;28;20040;-78
2022/03/19 06:43:24;;;;;;;43.22;13.35;;;;;;;-149.78;100.00;50401.03;5058363;28;20036;-78
2022/03/19 06:45:50;;;;;;;41.25;13.48;;;;;;;-149.78;100.00;50389.31;5057936;28;20136;-78
2022/03/19 06:48:16;;;;;;;50.83;13.85;;;;;;;-149.78;100.00;50383.44;5041351;28;20040;-78
2022/03/19 06:50:42;;;;;;;43.17;14.30;;;;;;;-149.78;100.00;50381.47;5074712;28;20390;-78
2022/03/19 06:53:08;;;;;;;45.67;16.38;;;;;;;-149.78;100.00;50406.91;5080491;28;20115;-78
2022/03/19 06:55:34;;;;;;;40.88;15.05;;;;;;;-149.78;100.00;50389.31;5094259;28;20032;-78
2022/03/19 06:58:00;;;;;;;39.47;15.10;;;;;;;-149.78;100.00;50397.13;5077704;28;20032;-79
2022/03/19 07:00:26;;;;;;;41.20;12.75;;;;;;;-149.78;100.00;50401.03;5077604;28;20059;-78
2022/03/19 07:02:54;;;;;;;43.67;13.50;;;;;;;-149.78;100.00;50369.75;5094624;28;20039;-78
2022/03/19 07:05:27;;;;;;;33.15;12.55;;;;;;;-149.78;100.00;50397.13;5095681;28;20032;-78
2022/03/19 07:07:55;;;;;;;28.65;11.85;;;;;;;-149.78;100.00;50385.38;5094456;28;20039;-78
2022/03/19 07:10:21;;;;;;;39.03;11.73;;;;;;;-149.78;100.00;50408.84;5076418;28;20114;-78
2022/03/19 07:12:52;;;;;;;27.50;10.57;;;;;;;-149.78;100.00;50352.16;5093741;28;20035;-78
2022/03/19 07:15:20;;;;;;;29.85;10.70;;;;;;;-149.78;100.00;50379.53;5077418;28;20491;-78
2022/03/19 07:17:46;;;;;;;32.08;10.38;;;;;;;-149.78;100.00;50350.19;5077167;28;20039;-78
2022/03/19 07:20:14;;;;;;;32.72;10.75;;;;;;;-149.78;100.00;50367.78;5094235;28;20042;-78
2022/03/19 07:22:53;;;;;;;28.58;10.38;;;;;;;-149.78;100.00;50352.16;5096442;28;20131;-78
2022/03/19 07:25:21;;;;;;;26.90;11.25;;;;;;;-149.78;100.00;50330.63;5077560;28;20031;-78
2022/03/19 07:27:49;;;;;;;30.25;10.38;;;;;;;-149.78;100.00;50369.75;5094885;28;20028;-78
2022/03/19 07:30:14;;;;;;;23.92;10.30;;;;;;;-149.78;100.00;50352.16;5075232;28;20036;-78
2022/03/19 07:32:40;;;;;;;26.48;9.63;;;;;;;-149.78;100.00;50326.72;5073951;28;20039;-78
2022/03/19 07:35:07;;;;;;;25.67;9.20;;;;;;;-149.78;100.00;50340.41;5073938;28;20426;-78
2022/03/19 07:37:33;;;;;;;25.90;10.68;;;;;;;-149.78;100.00;50322.81;5073697;28;20143;-79
2022/03/19 07:40:01;;;;;;;25.33;9.27;;;;;;;-149.78;100.00;50311.06;5074927;28;20031;-79
2022/03/19 07:42:27;;;;;;;23.90;9.13;;;;;;;-149.78;100.00;50309.13;5057238;28;20114;-79
2022/03/19 07:44:53;;;;;;;29.77;9.57;;;;;;;-149.78;100.00;50328.69;5056898;28;20052;-79
2022/03/19 07:47:19;;;;;;;26.13;8.48;;;;;;;-149.78;100.00;50236.75;5075524;28;20070;-79
2022/03/19 07:49:45;;;;;;;20.08;8.15;;;;;;;-149.78;100.00;50232.84;5041214;28;20040;-79
2022/03/19 07:52:11;;;;;;;27.75;8.77;;;;;;;-149.78;100.00;50221.13;5057264;28;20082;-79
2022/03/19 07:54:37;;;;;;;18.40;7.35;;;;;;;-149.78;100.00;50178.09;5092719;28;20502;-77
2022/03/19 07:57:04;;;;;;;15.50;7.22;;;;;;;-149.78;100.00;50170.25;5094810;28;20115;-77
2022/03/19 07:59:30;;;;;;;22.08;7.90;;;;;;;-149.78;100.00;50189.81;5094057;28;20024;-77
2022/03/19 08:01:56;;;;;;;17.00;6.43;;;;;;;-149.78;100.00;50185.91;5059694;28;20032;-77
2022/03/19 08:04:22;;;;;;;20.60;7.82;;;;;;;-149.78;100.00;50137.03;5093424;28;20432;-77
2022/03/19 08:06:55;;;;;;;19.67;7.60;;;;;;;-149.78;100.00;50154.63;5092544;28;20032;-77
2022/03/19 08:09:23;;;;;;;22.00;7.32;;;;;;;-149.78;100.00;50125.28;5093351;28;20028;-77
2022/03/19 08:11:51;;;;;;;23.17;7.38;;;;;;;-149.78;100.00;50092.03;5081540;28;20514;-78
2022/03/19 08:14:18;;;;;;;20.15;7.85;;;;;;;-149.78;100.00;50090.09;5074117;28;20036;-77
2022/03/19 08:16:44;;;;;;;22.27;8.15;;;;;;;-149.78;100.00;50103.78;5074049;28;20032;-77
2022/03/19 08:19:13;;;;;;;20.48;7.50;;;;;;;-149.78;100.00;50123.34;5074071;28;20115;-78
2022/03/19 08:21:45;;;;;;;27.33;7.47;;;;;;;-149.78;100.00;50115.50;5072553;28;20052;-77
2022/03/19 08:24:14;;;;;;;;;;;;;;;-149.78;100.00;50158.53;5073252;28;20425;-77
2022/03/19 08:26:39;;;;;;;17.50;7.88;;;;;;;-149.78;100.00;50138.97;5073932;28;20057;-77
2022/03/19 08:29:06;;;;;;;20.92;7.60;;;;;;;-149.78;100.00;50148.75;5085074;28;20443;-77
2022/03/19 08:31:33;;;;;;;23.00;7.78;;;;;;;-149.78;100.00;50121.38;5093984;28;20387;-77
2022/03/19 08:33:59;;;;;;;17.67;7.75;;;;;;;-149.78;100.00;50103.78;5092963;28;20086;-77
2022/03/19 08:36:25;;;;;;;22.58;8.18;;;;;;;-149.78;100.00;50072.50;5092622;28;20032;-77
2022/03/19 08:41:36;;;;;;;20.27;8.43;;;;;;;-149.78;81.61;50060.75;5094227;28;20447;-78
2022/03/19 08:44:02;;;;;;;19.80;8.05;;;;;;;-149.78;80.21;50105.72;5075935;28;20098;-79
2022/03/19 08:46:28;;;;;;;17.98;8.13;;;;;;;-149.78;74.45;50094.00;5093225;28;20081;-77
2022/03/19 08:48:54;;;;;;;21.15;7.65;;;;;;;-149.78;74.79;50068.56;5092592;28;20050;-77
2022/03/19 08:54:04;;;;;;;18.60;8.65;;;;;;;-149.78;73.25;50086.19;5094110;28;20387;-77
2022/03/19 08:56:30;;;;;;;27.10;8.48;;;;;;;-149.78;76.72;50076.41;5093496;28;20203;-76
2022/03/19 08:58:56;;;;;;;26.40;9.30;;;;;;;-149.78;79.07;50092.03;5091864;28;20612;-77
2022/03/19 09:01:22;;;;;;;19.60;8.52;;;;;;;-149.78;76.28;50076.41;5092576;28;20052;-76
2022/03/19 09:03:49;;;;;;;27.27;9.00;;;;;;;-149.78;80.32;50080.31;5075098;28;20032;-76
2022/03/19 09:06:14;;;;;;;19.38;8.15;;;;;;;-149.78;76.33;50076.41;5092630;28;20085;-77
2022/03/19 09:08:42;;;;;;;24.23;8.65;;;;;;;-149.78;78.29;50064.66;5089192;28;20509;-77
2022/03/19 09:11:08;;;;;;;24.45;9.07;;;;;;;-149.78;85.14;50107.69;5082275;28;20027;-77
2022/03/19 09:13:33;;;;;;;21.17;7.95;;;;;;;-149.78;76.75;50056.84;5093297;28;20039;-77
2022/03/19 09:15:59;;;;;;;21.17;8.25;;;;;;;-149.78;77.70;50082.25;5093838;28;20131;-77
2022/03/19 09:18:26;;;;;;;21.23;8.65;;;;;;;-149.78;98.99;50201.56;5092855;28;20032;-77
2022/03/19 09:20:52;;;;;;;25.95;8.57;;;;;;;-149.78;100.00;50182.00;5075846;28;20032;-78
2022/03/19 09:23:18;;;;;;;23.15;9.07;;;;;;;-149.78;100.00;50166.34;5076303;28;20040;-77
2022/03/19 09:25:43;;;;;;;25.17;8.73;;;;;;;-149.78;100.00;50162.44;5075646;28;20419;-78
2022/03/19 09:28:09;;;;;;;24.15;8.50;;;;;;;-149.78;100.00;50131.16;5092383;28;20028;-78
2022/03/19 09:30:35;;;;;;;26.08;8.55;;;;;;;-149.78;89.18;50125.28;5093315;28;20093;-79
2022/03/19 09:33:00;;;;;;;21.88;8.70;;;;;;;-149.78;80.70;50131.16;5092218;28;20075;-79
2022/03/19 09:35:26;;;;;;;22.92;8.68;;;;;;;-149.78;84.00;50146.81;5092197;28;20436;-79
2022/03/19 09:37:52;;;;;;;24.27;8.75;;;;;;;-149.78;81.51;50123.34;5075299;28;20067;-79
2022/03/19 09:40:19;;;;;;;25.20;9.48;;;;;;;-149.78;84.29;50099.88;5058574;28;20569;-80
2022/03/19 09:42:49;;;;;;;24.42;9.35;;;;;;;-149.78;77.45;50056.84;5093271;28;20028;-79
2022/03/19 09:45:19;;;;;;;21.00;7.70;;;;;;;-149.78;82.88;50142.88;5092089;28;20028;-79
2022/03/19 09:47:45;;;;;;;28.50;9.93;;;;;;;-149.78;71.37;50070.53;5093125;28;20024;-79
2022/03/19 09:50:11;;;;;;;23.98;8.93;;;;;;;-149.78;76.29;50103.78;5093463;28;20040;-80
2022/03/19 09:52:41;;;;;;;23.38;8.27;;;;;;;-149.78;74.95;50138.97;5090327;28;20028;-80
2022/03/19 09:55:08;;;;;;;19.25;8.30;;;;;;;-149.78;86.53;50119.41;5072953;28;20032;-79
2022/03/19 09:57:34;;;;;;;25.48;8.77;;;;;;;-149.78;82.70;50137.03;5054763;28;20035;-80
2022/03/19 10:00:01;;;;;;;23.48;8.80;;;;;;;-149.78;88.24;50146.81;5037776;28;20636;-80
2022/03/19 10:02:29;;;;;;;18.95;8.60;;;;;;;-149.78;96.09;50131.16;5053896;28;20111;-80
2022/03/19 10:04:57;;;;;;;29.65;8.95;;;;;;;-149.78;81.04;50088.13;5071854;28;20039;-80
2022/03/19 10:10:33;;;;;;;26.00;8.90;;;;;;;-149.78;75.10;50080.31;5090220;28;20280;-80
2022/03/19 10:12:59;;;;;;;20.90;7.88;;;;;;;-149.78;77.79;50072.50;5054240;28;20044;-79
2022/03/19 10:15:27;;;;;;;21.35;8.95;;;;;;;-149.78;73.75;50117.47;5070831;28;20036;-79
2022/03/19 10:17:59;;;;;;;24.17;7.93;;;;;;;-149.78;80.89;50099.88;5070665;28;20032;-80
2022/03/19 10:20:25;;;;;;;22.55;7.80;;;;;;;-149.78;79.67;50099.88;5054418;28;20036;-79
2022/03/19 10:22:51;;;;;;;21.42;8.65;;;;;;;-149.78;75.48;50095.94;5070797;28;20049;-79
2022/03/19 10:25:17;;;;;;;20.52;8.18;;;;;;;-149.78;70.57;50049.03;5071220;28;20032;-80
2022/03/19 10:27:45;;;;;;;25.70;8.52;;;;;;;-149.78;61.63;50041.19;5054916;28;20040;-80
2022/03/19 10:30:28;;;;;;;24.02;8.45;;;;;;;-149.78;62.22;50013.81;5094940;28;20101;-80
2022/03/19 10:32:56;;;;;;;26.70;7.90;;;;;;;-149.78;65.45;50076.41;5095163;28;20568;-80
2022/03/19 10:35:33;;;;;;;19.00;8.38;;;;;;;-149.78;71.19;50092.03;5096469;28;20039;-79
2022/03/19 10:38:03;;;;;;;23.98;9.02;;;;;;;-149.78;67.38;50072.50;5096237;28;20028;-79
2022/03/19 10:40:37;;;;;;;19.48;7.68;;;;;;;-149.78;64.16;50086.19;5078725;28;20032;-80
2022/03/19 10:43:06;;;;;;;21.35;7.72;;;;;;;-149.78;67.82;50123.34;5095204;28;20575;-80
2022/03/19 10:45:32;;;;;;;20.58;7.20;;;;;;;-149.78;65.17;50099.88;5094859;28;20050;-80
2022/03/19 10:48:00;;;;;;;19.35;7.28;;;;;;;-149.78;60.42;50076.41;5096175;28;20039;-80
2022/03/19 10:50:26;;;;;;;14.73;6.53;;;;;;;-149.78;59.59;50070.53;5096106;28;20073;-80
2022/03/19 10:52:52;;;;;;;16.52;5.57;;;;;;;-149.78;56.51;50056.84;5073690;28;20064;-80
2022/03/19 10:55:19;;;;;;;16.73;5.32;;;;;;;-149.78;59.32;50095.94;5074591;28;20064;-80
2022/03/19 10:57:46;;;;;;;14.95;5.32;;;;;;;-149.78;58.28;50052.94;5075634;28;20033;-79
2022/03/19 11:00:13;;;;;;;13.90;5.43;;;;;;;-149.78;56.04;50084.22;5074425;28;20036;-80
2022/03/19 11:02:49;;;;;;;13.48;4.80;;;;;;;-149.78;55.23;50076.41;5074217;28;20033;-79
2022/03/19 11:05:18;;;;;;;13.65;4.70;;;;;;;-149.78;56.59;50103.78;5074337;28;20427;-80
2022/03/19 11:07:45;;;;;;;13.60;4.72;;;;;;;-149.78;57.83;50062.72;5074612;28;20690;-70
2022/03/19 11:10:11;;;;;;;17.65;4.85;;;;;;;-149.78;55.58;50105.72;5072800;28;20037;-70
2022/03/19 11:12:43;;;;;;;9.50;4.30;;;;;;;-149.78;52.53;50107.69;5072794;28;20425;-71
2022/03/19 11:15:13;;;;;;;11.43;3.40;;;;;;;-149.78;53.34;50107.69;5073304;28;20389;-80
2022/03/19 11:17:40;;;;;;;11.20;4.05;;;;;;;-149.78;54.62;50150.72;5074191;28;20072;-79